Time;durP1;ratioP1;P1;durP2;ratioP2;P2;SDS_P1;SDS_P2;PMS_P1;PMS_P2;Temp;Humidity;BMP_temperature;BMP_pressure;BME280_temperature;BME280_humidity;BME280_pressure;Samples;Min_cycle;Max_cycle;Signal;HPM_P1;HPM_P2
2024/04/08 00:01:18;;;;;;;1.02;0.93;;;;;;;14.41;81.64;99919.69;5114492;28;20513;-67
2024/04/08 00:03:46;;;;;;;0.80;0.80;;;;;;;14.39;81.65;99909.47;5114327;28;20039;-67
2024/04/08 00:06:14;;;;;;;1.08;0.98;;;;;;;14.39;81.52;99919.72;5114397;28;20525;-67
2024/04/08 00:08:41;;;;;;;0.73;0.73;;;;;;;14.35;81.89;99920.63;5098042;28;20035;-67
2024/04/08 00:11:09;;;;;;;1.10;1.00;;;;;;;14.37;81.76;99913.75;5097349;28;20043;-66
2024/04/08 00:13:37;;;;;;;3.08;1.45;;;;;;;14.37;81.97;99915.47;5114234;28;20466;-67
2024/04/08 00:16:06;;;;;;;7.30;2.05;;;;;;;14.36;81.85;99913.78;5114466;28;20044;-67
2024/04/08 00:18:33;;;;;;;1.27;1.23;;;;;;;14.36;81.73;99913.78;5113908;28;20074;-67
2024/04/08 00:21:03;;;;;;;0.40;0.40;;;;;;;14.32;81.96;99918.09;5114265;28;20559;-66
2024/04/08 00:23:30;;;;;;;0.55;0.55;;;;;;;14.27;81.96;99917.28;5097343;28;20378;-66
2024/04/08 00:25:57;;;;;;;1.08;0.80;;;;;;;14.25;82.19;99929.28;5114259;28;20044;-67
2024/04/08 00:28:24;;;;;;;0.65;0.65;;;;;;;14.24;82.13;99921.59;5114449;28;20512;-66
2024/04/08 00:30:51;;;;;;;0.40;0.40;;;;;;;14.23;81.88;99925.88;5114143;28;20378;-66
2024/04/08 00:33:18;;;;;;;1.75;1.35;;;;;;;14.22;82.38;99931.88;5113759;28;20062;-66
2024/04/08 00:35:46;;;;;;;0.65;0.65;;;;;;;14.15;82.17;99927.69;5096775;28;20036;-66
2024/04/08 00:38:14;;;;;;;1.25;1.15;;;;;;;14.14;82.48;99925.97;5096778;28;20036;-66
2024/04/08 00:40:41;;;;;;;1.35;1.08;;;;;;;14.11;82.51;99920.88;5096909;28;20051;-66
2024/04/08 00:43:09;;;;;;;0.73;0.73;;;;;;;14.08;81.97;99915.78;5113978;28;20067;-67
2024/04/08 00:45:38;;;;;;;1.00;0.90;;;;;;;14.04;82.12;99924.38;5096843;28;20032;-66
2024/04/08 00:48:05;;;;;;;0.60;0.60;;;;;;;13.96;82.63;99915.94;5113865;28;20405;-66
2024/04/08 00:50:33;;;;;;;0.50;0.50;;;;;;;13.93;82.65;99928.78;5113510;28;20551;-67
2024/04/08 00:53:00;;;;;;;1.15;1.02;;;;;;;13.89;82.52;99916.84;5113513;28;20126;-67
2024/04/08 00:55:32;;;;;;;1.20;1.17;;;;;;;13.83;83.01;99911.78;5113665;28;20089;-67
2024/04/08 00:57:59;;;;;;;3.30;1.77;;;;;;;13.84;83.19;99910.91;5113985;28;20481;-66
2024/04/08 01:00:27;;;;;;;0.47;0.47;;;;;;;13.78;83.24;99916.09;5113554;28;20039;-67
2024/04/08 01:02:57;;;;;;;0.60;0.60;;;;;;;13.83;83.52;99915.19;5113619;28;20047;-67
2024/04/08 01:05:26;;;;;;;2.40;0.77;;;;;;;13.84;83.57;99909.22;5113806;28;20401;-66
2024/04/08 01:07:52;;;;;;;1.38;1.25;;;;;;;13.85;83.69;99917.72;5113162;28;20052;-68
2024/04/08 01:10:21;;;;;;;0.98;0.82;;;;;;;13.82;83.69;99910.09;5113429;28;20516;-66
2024/04/08 01:12:49;;;;;;;0.50;0.50;;;;;;;13.78;83.73;99911.81;5113260;28;20043;-66
2024/04/08 01:15:17;;;;;;;1.17;0.82;;;;;;;13.75;83.29;99913.59;5112747;28;20489;-67
2024/04/08 01:17:48;;;;;;;0.55;0.55;;;;;;;13.75;83.55;99916.16;5096480;28;20042;-67
2024/04/08 01:20:16;;;;;;;0.40;0.40;;;;;;;13.77;83.96;99910.09;5113012;28;20047;-67
2024/04/08 01:22:48;;;;;;;1.10;1.00;;;;;;;13.78;83.96;99919.53;5096260;28;20558;-66
2024/04/08 01:25:17;;;;;;;0.35;0.35;;;;;;;13.77;83.95;99927.25;5113240;28;20504;-67
2024/04/08 01:27:43;;;;;;;0.50;0.50;;;;;;;13.78;83.70;99926.34;5112937;28;20047;-67
2024/04/08 01:30:12;;;;;;;0.60;0.60;;;;;;;13.80;84.10;99915.22;5113113;28;20040;-67
2024/04/08 01:32:39;;;;;;;0.60;0.60;;;;;;;13.74;84.05;99924.69;5113162;28;20042;-67
2024/04/08 01:35:06;;;;;;;3.80;0.80;;;;;;;13.71;84.05;99914.44;5096221;28;20035;-67
2024/04/08 01:37:33;;;;;;;0.50;0.50;;;;;;;13.72;84.15;99911.91;5112771;28;20040;-67
2024/04/08 01:40:01;;;;;;;1.67;1.00;;;;;;;13.73;84.00;99908.44;5113357;28;20066;-66
2024/04/08 01:42:29;;;;;;;0.88;0.88;;;;;;;13.71;84.32;99911.88;5112880;28;20036;-66
2024/04/08 01:44:56;;;;;;;0.73;0.73;;;;;;;13.73;84.57;99907.59;5113307;28;20058;-67
2024/04/08 01:47:23;;;;;;;0.50;0.50;;;;;;;13.75;84.11;99905.88;5095689;28;20032;-66
2024/04/08 01:49:51;;;;;;;0.77;0.63;;;;;;;13.69;84.16;99905.94;5096012;28;20039;-66
2024/04/08 01:52:17;;;;;;;1.30;1.20;;;;;;;13.64;84.03;99900.84;5096090;28;20486;-66
2024/04/08 01:54:45;;;;;;;0.75;0.75;;;;;;;13.69;84.26;99900.81;5112642;28;20044;-66
2024/04/08 01:57:12;;;;;;;1.00;0.60;;;;;;;13.71;84.35;99904.19;5112593;28;20491;-67
2024/04/08 01:59:41;;;;;;;0.75;0.65;;;;;;;13.63;83.98;99895.75;5096136;28;20072;-67
2024/04/08 02:02:08;;;;;;;4.65;1.95;;;;;;;13.64;84.10;99898.28;5096034;28;20035;-66
2024/04/08 02:04:36;;;;;;;1.02;0.98;;;;;;;13.55;84.02;99892.38;5095841;28;20100;-67
2024/04/08 02:07:03;;;;;;;1.08;1.02;;;;;;;13.54;84.32;99895.81;5112796;28;20047;-66
2024/04/08 02:09:30;;;;;;;0.40;0.40;;;;;;;13.54;84.51;99885.53;5112872;28;20040;-66
2024/04/08 02:11:57;;;;;;;1.02;0.65;;;;;;;13.52;84.36;99898.41;5112706;28;20039;-66
2024/04/08 02:14:25;;;;;;;0.90;0.70;;;;;;;13.44;84.10;99890.78;5112931;28;20032;-66
2024/04/08 02:16:53;;;;;;;0.70;0.70;;;;;;;13.49;84.70;99887.31;5112681;28;20051;-67
2024/04/08 02:19:20;;;;;;;0.50;0.50;;;;;;;13.48;84.54;99895.88;5112387;28;20387;-66
2024/04/08 02:21:47;;;;;;;1.40;1.10;;;;;;;13.50;84.25;99891.56;5095792;28;20031;-66
2024/04/08 02:24:15;;;;;;;0.60;0.60;;;;;;;13.46;84.53;99866.84;5112943;28;20078;-66
2024/04/08 02:26:42;;;;;;;4.50;2.03;;;;;;;13.51;84.35;99895.84;5114730;28;20040;-66
2024/04/08 02:29:10;;;;;;;8.95;1.60;;;;;;;13.46;84.24;99883.06;5116640;28;20044;-67
2024/04/08 02:31:36;;;;;;;0.63;0.63;;;;;;;13.41;84.27;99880.53;5116106;28;20085;-66
2024/04/08 02:34:06;;;;;;;0.65;0.65;;;;;;;13.39;84.66;99887.38;5116411;28;20068;-66
2024/04/08 02:36:32;;;;;;;0.38;0.38;;;;;;;13.37;84.40;99875.44;5116895;28;20040;-66
2024/04/08 02:39:00;;;;;;;0.55;0.55;;;;;;;13.37;84.57;99878.88;5116530;28;20043;-66
2024/04/08 02:41:27;;;;;;;0.43;0.43;;;;;;;13.41;84.77;99870.28;5115971;28;20043;-67
2024/04/08 02:43:55;;;;;;;1.00;0.98;;;;;;;13.36;84.62;99866.91;5116241;28;20113;-66
2024/04/08 02:46:21;;;;;;;0.65;0.65;;;;;;;13.40;84.43;99868.59;5116268;28;20036;-66
2024/04/08 02:48:50;;;;;;;0.98;0.77;;;;;;;13.30;84.22;99872.09;5116181;28;20492;-66
2024/04/08 02:51:18;;;;;;;0.40;0.40;;;;;;;13.33;84.36;99868.66;5099051;28;20054;-66
2024/04/08 02:53:46;;;;;;;2.47;1.65;;;;;;;13.26;84.12;99860.19;5116017;28;20063;-66
2024/04/08 02:56:12;;;;;;;0.50;0.50;;;;;;;13.20;84.15;99869.63;5116322;28;20042;-66
2024/04/08 02:58:40;;;;;;;0.70;0.70;;;;;;;13.21;84.14;99859.38;5115956;28;20076;-66
2024/04/08 03:01:09;;;;;;;0.50;0.50;;;;;;;13.16;84.29;99868.81;5115898;28;20573;-66
2024/04/08 03:03:37;;;;;;;0.93;0.73;;;;;;;13.12;84.41;99864.56;5116095;28;20074;-67
2024/04/08 03:06:08;;;;;;;1.80;1.17;;;;;;;13.16;84.59;99863.69;5115856;28;20040;-66
2024/04/08 03:08:37;;;;;;;0.98;0.88;;;;;;;13.06;84.36;99848.38;5115946;28;20462;-66
2024/04/08 03:11:04;;;;;;;;;;;;;;;13.12;84.27;99856.88;5099155;28;20367;-66
2024/04/08 03:13:31;;;;;;;0.38;0.38;;;;;;;13.13;84.36;99858.56;5115580;28;19919;-66
2024/04/08 03:15:58;;;;;;;1.05;0.95;;;;;;;13.15;84.57;99851.72;5115572;28;20043;-66
2024/04/08 03:18:26;;;;;;;0.47;0.47;;;;;;;13.11;84.82;99854.31;5115673;28;20058;-66
2024/04/08 03:20:56;;;;;;;1.10;1.00;;;;;;;13.15;84.82;99854.28;5115086;28;20459;-66
2024/04/08 03:23:24;;;;;;;0.47;0.47;;;;;;;13.18;84.89;99851.69;5115806;28;20054;-67
2024/04/08 03:25:57;;;;;;;1.33;0.63;;;;;;;13.09;84.92;99843.22;5115461;28;20031;-66
2024/04/08 03:28:25;;;;;;;8.07;1.48;;;;;;;13.13;84.71;99845.75;5115125;28;20397;-66
2024/04/08 03:30:52;;;;;;;0.70;0.70;;;;;;;13.14;84.85;99846.63;5114994;28;20088;-66
2024/04/08 03:33:21;;;;;;;0.50;0.50;;;;;;;13.12;84.68;99846.63;5115082;28;20201;-67
2024/04/08 03:35:48;;;;;;;1.15;1.13;;;;;;;13.13;85.02;99847.47;5114938;28;20047;-67
2024/04/08 03:38:16;;;;;;;0.98;0.90;;;;;;;13.12;84.79;99846.63;5114575;28;20075;-66
2024/04/08 03:40:45;;;;;;;0.90;0.75;;;;;;;13.14;84.80;99844.91;5115070;28;20040;-67
2024/04/08 03:43:14;;;;;;;2.03;1.55;;;;;;;13.14;84.73;99850.03;5114824;28;20036;-66
2024/04/08 03:45:49;;;;;;;8.85;2.22;;;;;;;13.12;84.62;99849.19;5115106;28;20065;-66
2024/04/08 03:48:17;;;;;;;2.75;1.95;;;;;;;13.12;84.86;99849.19;5115125;28;20083;-66
2024/04/08 03:50:44;;;;;;;2.78;2.35;;;;;;;13.08;84.57;99850.06;5114671;28;20502;-66
2024/04/08 03:53:12;;;;;;;2.97;2.33;;;;;;;12.75;84.30;99793.94;5114785;28;20043;-66
2024/04/08 03:55:39;;;;;;;1.95;1.65;;;;;;;13.02;84.41;99855.22;5114868;28;20387;-66
2024/04/08 03:58:07;;;;;;;1.42;1.25;;;;;;;13.01;84.31;99853.50;5115104;28;20032;-66
2024/04/08 04:00:35;;;;;;;2.92;0.98;;;;;;;12.92;84.35;99835.66;5114716;28;20093;-66
2024/04/08 04:03:03;;;;;;;1.92;1.73;;;;;;;13.01;84.26;99848.38;5114750;28;20566;-66
2024/04/08 04:05:29;;;;;;;2.47;1.60;;;;;;;12.98;84.08;99853.53;5114940;28;20051;-66
2024/04/08 04:07:57;;;;;;;4.90;2.15;;;;;;;12.94;83.89;99856.13;5114604;28;20492;-66
2024/04/08 04:10:24;;;;;;;3.83;3.10;;;;;;;12.96;84.06;99860.38;5114551;28;20027;-67
2024/04/08 04:12:52;;;;;;;1.27;1.20;;;;;;;12.96;83.84;99859.53;5114541;28;20035;-66
2024/04/08 04:15:18;;;;;;;0.77;0.77;;;;;;;12.97;83.91;99861.22;5114075;28;20051;-66
2024/04/08 04:17:47;;;;;;;3.42;1.35;;;;;;;12.92;83.91;99862.97;5097390;28;20047;-66
2024/04/08 04:20:16;;;;;;;0.85;0.85;;;;;;;12.80;84.34;99843.44;5113791;28;20440;-66
2024/04/08 04:22:44;;;;;;;1.85;1.30;;;;;;;12.90;84.16;99863.00;5097450;28;20489;-66
2024/04/08 04:25:11;;;;;;;1.00;0.90;;;;;;;12.91;84.19;99862.13;5097257;28;20039;-66
2024/04/08 04:27:39;;;;;;;0.52;0.52;;;;;;;12.94;84.13;99867.22;5114145;28;20043;-67
2024/04/08 04:30:07;;;;;;;1.38;1.10;;;;;;;12.90;84.30;99870.69;5114350;28;20051;-66
2024/04/08 04:32:34;;;;;;;0.65;0.60;;;;;;;12.91;84.32;99867.25;5097315;28;20035;-66
2024/04/08 04:35:03;;;;;;;0.57;0.57;;;;;;;12.87;84.14;99868.13;5114103;28;20043;-66
2024/04/08 04:37:31;;;;;;;1.15;1.05;;;;;;;12.91;84.04;99872.38;5114212;28;20047;-66
2024/04/08 04:39:58;;;;;;;0.50;0.50;;;;;;;12.90;84.28;99874.94;5114243;28;20486;-66
2024/04/08 04:42:25;;;;;;;0.50;0.50;;;;;;;12.93;84.15;99878.34;5113576;28;20042;-66
2024/04/08 04:44:52;;;;;;;1.08;0.85;;;;;;;12.92;84.09;99874.09;5113564;28;20421;-67
2024/04/08 04:47:20;;;;;;;1.05;0.88;;;;;;;12.96;84.11;99870.63;5113915;28;20046;-66
2024/04/08 04:49:46;;;;;;;1.13;1.02;;;;;;;12.97;83.77;99871.47;5112568;28;20081;-66
2024/04/08 04:52:15;;;;;;;0.82;0.82;;;;;;;13.00;84.10;99868.91;5096555;28;20558;-66
2024/04/08 04:54:42;;;;;;;1.27;1.03;;;;;;;13.05;83.95;99870.53;5097111;28;20109;-66
2024/04/08 04:57:09;;;;;;;1.15;1.02;;;;;;;13.04;83.74;99879.13;5096784;28;20374;-66
2024/04/08 04:59:36;;;;;;;1.20;1.10;;;;;;;13.09;83.85;99882.53;5097087;28;20035;-66
2024/04/08 05:02:04;;;;;;;1.65;1.05;;;;;;;13.14;83.85;99879.94;5113863;28;20039;-66
2024/04/08 05:04:30;;;;;;;1.27;1.17;;;;;;;13.17;83.51;99875.59;5113553;28;20097;-66
2024/04/08 05:06:58;;;;;;;0.80;0.80;;;;;;;13.20;83.57;99890.97;5096480;28;20062;-66
2024/04/08 05:09:26;;;;;;;2.85;2.00;;;;;;;13.26;83.56;99880.69;5096344;28;20044;-66
2024/04/08 05:11:55;;;;;;;1.13;1.02;;;;;;;13.35;83.36;99885.72;5113936;28;20081;-66
2024/04/08 05:14:21;;;;;;;0.73;0.73;;;;;;;13.34;83.28;99880.63;5095938;28;20494;-67
2024/04/08 05:16:49;;;;;;;1.02;0.90;;;;;;;13.42;83.05;99892.50;5113287;28;20054;-66
2024/04/08 05:19:16;;;;;;;0.80;0.80;;;;;;;13.42;83.30;99887.38;5113085;28;20047;-66
2024/04/08 05:21:44;;;;;;;3.35;1.73;;;;;;;13.51;83.31;99901.00;5095290;28;20039;-67
2024/04/08 05:24:10;;;;;;;2.20;1.60;;;;;;;13.58;82.81;99888.06;5113208;28;20048;-66
2024/04/08 05:26:39;;;;;;;1.35;1.23;;;;;;;13.64;82.86;99897.44;5096213;28;20070;-67
2024/04/08 05:29:06;;;;;;;1.13;1.02;;;;;;;13.70;83.09;99897.38;5113162;28;20040;-66
2024/04/08 05:31:34;;;;;;;1.23;1.13;;;;;;;13.77;83.03;99889.59;5096344;28;20035;-67
2024/04/08 05:34:00;;;;;;;1.52;1.27;;;;;;;13.86;82.62;99886.09;5113046;28;20044;-66
2024/04/08 05:36:28;;;;;;;2.30;1.55;;;;;;;13.91;82.94;99886.88;5112768;28;20123;-66
2024/04/08 05:38:54;;;;;;;1.33;1.23;;;;;;;13.97;82.28;99890.22;5112617;28;20031;-67
2024/04/08 05:41:22;;;;;;;1.40;0.95;;;;;;;14.11;82.60;99884.94;5113043;28;20629;-67
2024/04/08 05:43:50;;;;;;;1.27;0.90;;;;;;;14.25;82.59;99893.34;5112969;28;20493;-66
2024/04/08 05:46:18;;;;;;;0.73;0.73;;;;;;;14.30;82.31;99896.72;5095809;28;20517;-66
2024/04/08 05:48:45;;;;;;;1.00;0.95;;;;;;;14.34;81.80;99889.84;5112994;28;20046;-66
2024/04/08 05:51:12;;;;;;;0.55;0.55;;;;;;;14.42;81.68;99888.03;5112921;28;20051;-66
2024/04/08 05:53:39;;;;;;;0.95;0.77;;;;;;;14.51;81.65;99896.47;5112980;28;20051;-67
2024/04/08 05:56:07;;;;;;;0.70;0.70;;;;;;;14.58;81.20;99897.22;5112835;28;20398;-66
2024/04/08 05:58:34;;;;;;;1.77;1.40;;;;;;;14.66;81.21;99891.09;5112875;28;20043;-66
2024/04/08 06:01:03;;;;;;;1.25;1.15;;;;;;;14.77;80.99;99889.25;5114243;28;20062;-66
2024/04/08 06:03:29;;;;;;;1.10;1.00;;;;;;;14.95;80.78;99887.28;5117312;28;20402;-66
2024/04/08 06:05:58;;;;;;;1.15;1.05;;;;;;;15.07;80.62;99894.81;5099866;28;20046;-65
2024/04/08 06:08:24;;;;;;;4.15;2.08;;;;;;;15.16;80.92;99885.22;5116775;28;20039;-66
2024/04/08 06:10:52;;;;;;;7.03;1.67;;;;;;;15.32;80.96;99885.81;5099871;28;20039;-66
2024/04/08 06:13:21;;;;;;;2.53;1.38;;;;;;;15.47;80.40;99879.59;5116924;28;20040;-66
2024/04/08 06:15:50;;;;;;;9.45;2.00;;;;;;;15.59;80.25;99872.50;5116334;28;20040;-66
2024/04/08 06:18:21;;;;;;;2.05;1.17;;;;;;;15.70;80.34;99878.31;5116448;28;20493;-66
2024/04/08 06:20:54;;;;;;;1.40;1.30;;;;;;;15.85;80.13;99878.03;5116485;28;20052;-66
2024/04/08 06:23:21;;;;;;;18.77;1.40;;;;;;;15.97;79.85;99882.94;5116913;28;20058;-66
2024/04/08 06:25:48;;;;;;;1.67;1.20;;;;;;;16.06;80.05;99864.72;5082633;28;20051;-66
2024/04/08 06:28:15;;;;;;;1.30;1.20;;;;;;;16.30;79.68;99883.13;5116183;28;20046;-66
2024/04/08 06:30:42;;;;;;;3.47;1.40;;;;;;;16.47;80.00;99881.06;5116422;28;20050;-66
2024/04/08 06:33:09;;;;;;;4.40;2.28;;;;;;;16.55;79.33;99880.06;5116358;28;20085;-66
2024/04/08 06:35:38;;;;;;;1.63;1.00;;;;;;;16.69;79.25;99883.19;5116385;28;20044;-66
2024/04/08 06:38:05;;;;;;;2.10;1.38;;;;;;;16.91;78.86;99877.53;5116361;28;20039;-66
2024/04/08 06:40:33;;;;;;;2.05;1.85;;;;;;;17.15;79.03;99877.81;5116273;28;20051;-66
2024/04/08 06:43:00;;;;;;;1.10;0.98;;;;;;;17.37;78.66;99884.09;5116188;28;20043;-67
2024/04/08 06:45:27;;;;;;;0.60;0.60;;;;;;;17.54;78.64;99881.13;5116189;28;20073;-66
2024/04/08 06:47:54;;;;;;;2.83;1.30;;;;;;;17.70;78.08;99881.59;5116312;28;20089;-67
2024/04/08 06:50:23;;;;;;;1.73;0.90;;;;;;;17.84;77.78;99879.50;5099039;28;20048;-67
2024/04/08 06:52:52;;;;;;;2.15;1.30;;;;;;;17.95;77.59;99880.03;5082081;28;20051;-67
2024/04/08 06:55:20;;;;;;;0.60;0.60;;;;;;;18.07;77.26;99882.28;5116338;28;20032;-66
2024/04/08 06:57:46;;;;;;;0.70;0.70;;;;;;;18.20;76.92;99875.03;5098850;28;20036;-67
2024/04/08 07:00:14;;;;;;;1.38;1.27;;;;;;;18.33;76.84;99879.81;5116211;28;20073;-67
2024/04/08 07:02:41;;;;;;;2.75;1.77;;;;;;;18.45;76.55;99871.69;5115477;28;20040;-67
2024/04/08 07:05:08;;;;;;;0.70;0.70;;;;;;;18.59;75.50;99874.78;5115698;28;20512;-66
2024/04/08 07:07:35;;;;;;;1.65;0.98;;;;;;;18.78;74.96;99876.78;5116033;28;20032;-67
2024/04/08 07:10:05;;;;;;;2.15;1.05;;;;;;;18.87;71.95;99876.47;5098794;28;20431;-66
2024/04/08 07:12:31;;;;;;;1.13;1.02;;;;;;;19.05;68.87;99875.94;5114476;28;20040;-67
2024/04/08 07:14:59;;;;;;;0.60;0.60;;;;;;;19.26;67.60;99867.47;5115777;28;20047;-66
2024/04/08 07:17:26;;;;;;;15.18;1.02;;;;;;;19.45;64.32;99865.97;5098620;28;20065;-67
2024/04/08 07:19:54;;;;;;;0.70;0.70;;;;;;;19.59;63.73;99863.75;5115303;28;20119;-67
2024/04/08 07:22:20;;;;;;;0.57;0.57;;;;;;;19.64;62.90;99871.38;5115434;28;20127;-67
2024/04/08 07:24:48;;;;;;;0.50;0.50;;;;;;;19.70;62.75;99877.19;5115444;28;20429;-67
2024/04/08 07:27:16;;;;;;;0.70;0.70;;;;;;;19.74;62.49;99873.59;5115494;28;20040;-66
2024/04/08 07:29:43;;;;;;;0.65;0.63;;;;;;;19.80;62.41;99867.34;5115408;28;20546;-66
2024/04/08 07:32:10;;;;;;;1.27;0.73;;;;;;;19.84;61.63;99874.13;5115260;28;20524;-66
2024/04/08 07:34:38;;;;;;;0.65;0.65;;;;;;;19.92;61.45;99867.75;5097249;28;20036;-66
2024/04/08 07:37:04;;;;;;;1.58;1.48;;;;;;;20.03;61.25;99873.38;5098091;28;20089;-67
2024/04/08 07:39:32;;;;;;;0.73;0.65;;;;;;;20.12;60.69;99874.81;5098458;28;20051;-67
2024/04/08 07:41:59;;;;;;;3.70;0.93;;;;;;;20.25;60.66;99870.06;5114842;28;20035;-67
2024/04/08 07:44:28;;;;;;;1.23;0.88;;;;;;;20.20;60.03;99846.03;5115319;28;20036;-67
2024/04/08 07:46:54;;;;;;;;;;;;;;;20.41;60.03;99866.00;5114940;28;20040;-67
2024/04/08 07:49:22;;;;;;;0.80;0.80;;;;;;;20.52;60.08;99869.88;5098015;28;20439;-67
2024/04/08 07:51:49;;;;;;;0.43;0.43;;;;;;;20.67;59.67;99873.63;5114890;28;20054;-67
2024/04/08 07:54:16;;;;;;;0.68;0.68;;;;;;;20.85;59.91;99872.06;5114448;28;20040;-66
2024/04/08 07:56:43;;;;;;;0.60;0.60;;;;;;;21.02;60.47;99860.09;5114853;28;20043;-66
2024/04/08 07:59:10;;;;;;;0.43;0.43;;;;;;;21.21;60.85;99858.47;5114446;28;20397;-67
2024/04/08 08:01:38;;;;;;;0.77;0.68;;;;;;;21.05;60.99;99807.25;5115316;28;20028;-67
2024/04/08 08:04:06;;;;;;;0.70;0.70;;;;;;;21.38;59.47;99851.75;5114765;28;20078;-67
2024/04/08 08:06:34;;;;;;;2.03;1.23;;;;;;;21.41;58.04;99856.78;5114638;28;20130;-67
2024/04/08 08:09:02;;;;;;;0.60;0.60;;;;;;;21.41;57.40;99843.81;5114651;28;20055;-67
2024/04/08 08:11:30;;;;;;;0.93;0.80;;;;;;;21.59;56.02;99853.44;5114463;28;20080;-67
2024/04/08 08:13:58;;;;;;;1.20;1.10;;;;;;;21.69;55.76;99858.16;5114040;28;20084;-67
2024/04/08 08:16:27;;;;;;;0.63;0.63;;;;;;;21.89;55.01;99854.72;5114662;28;20375;-67
2024/04/08 08:18:56;;;;;;;0.40;0.40;;;;;;;22.01;51.68;99846.38;5097212;28;20181;-67
2024/04/08 08:21:25;;;;;;;0.40;0.40;;;;;;;22.06;49.44;99849.63;5097295;28;20090;-66
2024/04/08 08:23:53;;;;;;;0.60;0.60;;;;;;;22.17;48.94;99852.56;5114076;28;20401;-66
2024/04/08 08:26:20;;;;;;;0.50;0.50;;;;;;;22.30;48.90;99845.91;5113934;28;20378;-67
2024/04/08 08:30:25;;;;;;;0.30;0.30;;;;;;;22.48;46.70;99844.22;5546209;25;20326;-66
2024/04/08 08:32:54;;;;;;;0.50;0.50;;;;;;;22.56;45.87;99842.09;5546667;25;20001;-65
2024/04/08 08:35:25;;;;;;;0.50;0.50;;;;;;;22.67;44.20;99850.28;5546532;25;20001;-66
2024/04/08 08:37:53;;;;;;;0.60;0.60;;;;;;;22.77;44.25;99842.88;5513290;25;20001;-66
2024/04/08 08:40:23;;;;;;;0.57;0.57;;;;;;;22.96;43.12;99839.31;5513336;25;20013;-64
2024/04/08 08:42:54;;;;;;;0.52;0.52;;;;;;;23.10;43.39;99843.84;5546188;25;20077;-65
2024/04/08 08:45:30;;;;;;;0.50;0.50;;;;;;;23.30;43.74;99838.47;5546550;25;20026;-66
2024/04/08 08:47:58;;;;;;;0.60;0.57;;;;;;;23.43;44.94;99842.19;5546156;25;19997;-66
2024/04/08 08:50:30;;;;;;;0.43;0.43;;;;;;;23.48;42.57;99839.34;5546039;25;20004;-66
2024/04/08 08:52:58;;;;;;;0.40;0.40;;;;;;;23.48;42.85;99840.22;5546389;25;20515;-66
2024/04/08 08:55:32;;;;;;;0.50;0.50;;;;;;;23.63;43.15;99839.44;5546206;25;20011;-67
2024/04/08 08:58:01;;;;;;;0.52;0.50;;;;;;;23.54;42.61;99845.09;5546198;25;20012;-66
2024/04/08 09:00:40;;;;;;;0.60;0.60;;;;;;;23.38;42.18;99832.91;5513283;25;19997;-67
2024/04/08 09:03:12;;;;;;;0.50;0.50;;;;;;;23.33;44.40;99835.72;5545842;25;20328;-67
2024/04/08 09:05:43;;;;;;;0.65;0.65;;;;;;;23.36;44.00;99827.81;5545596;25;20073;-66
2024/04/08 09:08:10;;;;;;;0.57;0.57;;;;;;;23.36;43.52;99827.81;5545987;25;20471;-67
2024/04/08 09:10:45;;;;;;;0.57;0.55;;;;;;;23.39;42.80;99825.03;5545853;25;20069;-67
2024/04/08 09:13:20;;;;;;;0.60;0.60;;;;;;;23.51;42.48;99834.84;5546126;25;20016;-67
2024/04/08 09:15:54;;;;;;;0.65;0.65;;;;;;;23.45;43.00;99835.16;5546122;25;20012;-67
2024/04/08 09:18:22;;;;;;;0.60;0.60;;;;;;;23.51;42.78;99834.84;5545812;25;20041;-67
2024/04/08 09:20:53;;;;;;;0.47;0.47;;;;;;;23.64;44.05;99838.50;5546117;25;20422;-66
2024/04/08 09:23:21;;;;;;;0.40;0.40;;;;;;;23.67;44.42;99835.72;5543991;25;20012;-66
2024/04/08 09:25:53;;;;;;;0.65;0.50;;;;;;;23.64;44.48;99828.06;5542871;25;20066;-66
2024/04/08 09:28:21;;;;;;;0.50;0.50;;;;;;;23.56;43.43;99826.78;5545261;25;20439;-66
2024/04/08 09:30:54;;;;;;;0.43;0.43;;;;;;;23.60;44.56;99823.94;5545747;25;20009;-66
2024/04/08 09:33:22;;;;;;;0.75;0.70;;;;;;;23.73;44.56;99830.19;5512783;25;20458;-65
2024/04/08 09:35:53;;;;;;;1.50;1.00;;;;;;;23.77;44.12;99810.88;5545481;25;20029;-67
2024/04/08 09:38:22;;;;;;;0.30;0.30;;;;;;;23.87;43.71;99817.28;5545599;25;20332;-66
2024/04/08 09:40:54;;;;;;;0.40;0.40;;;;;;;23.86;43.48;99820.81;5533955;25;19998;-65
2024/04/08 09:43:24;;;;;;;0.50;0.50;;;;;;;24.00;43.20;99805.28;5527524;26;20034;-66
2024/04/08 09:45:57;;;;;;;0.60;0.55;;;;;;;24.20;43.17;99808.59;5529625;26;20001;-67
2024/04/08 09:48:26;;;;;;;0.93;0.90;;;;;;;24.19;42.48;99786.03;5529533;25;20017;-66
2024/04/08 09:50:58;;;;;;;0.50;0.50;;;;;;;24.30;43.24;99801.97;5529141;25;20009;-65
2024/04/08 09:53:30;;;;;;;0.40;0.40;;;;;;;24.37;43.58;99792.88;5529371;25;20042;-67
2024/04/08 09:56:06;;;;;;;0.50;0.50;;;;;;;24.30;43.08;99799.38;5529116;25;20009;-67
2024/04/08 09:58:40;;;;;;;0.82;0.82;;;;;;;24.31;43.65;99793.19;5528830;26;20009;-66
2024/04/08 10:01:16;;;;;;;0.40;0.40;;;;;;;24.19;42.93;99780.81;5529295;25;20017;-66
2024/04/08 10:03:49;;;;;;;0.50;0.50;;;;;;;24.41;43.56;99776.13;5529125;25;20009;-66
2024/04/08 10:06:23;;;;;;;0.50;0.50;;;;;;;24.55;43.05;99769.19;5528906;25;20017;-66
2024/04/08 10:08:53;;;;;;;0.60;0.60;;;;;;;24.59;41.69;99785.53;5529179;26;20440;-66
2024/04/08 10:11:25;;;;;;;0.82;0.70;;;;;;;24.55;41.72;99768.34;5529285;25;19998;-66
2024/04/08 10:13:53;;;;;;;0.60;0.50;;;;;;;24.53;42.50;99767.59;5529132;26;20463;-65
2024/04/08 10:16:27;;;;;;;0.40;0.40;;;;;;;24.32;43.05;99755.75;5528919;26;20013;-67
2024/04/08 10:18:55;;;;;;;0.63;0.60;;;;;;;24.17;42.61;99767.88;5529423;25;20066;-66
2024/04/08 10:21:29;;;;;;;0.55;0.55;;;;;;;24.11;43.34;99756.94;5527039;26;20012;-66
2024/04/08 10:23:58;;;;;;;0.77;0.77;;;;;;;24.18;43.22;99763.50;5528749;25;19997;-66
2024/04/08 10:26:29;;;;;;;0.50;0.50;;;;;;;24.26;42.51;99745.69;5527072;26;19998;-65
2024/04/08 10:28:58;;;;;;;0.35;0.35;;;;;;;24.38;41.72;99744.97;5528506;26;20364;-66
2024/04/08 10:31:33;;;;;;;0.70;0.70;;;;;;;24.45;41.04;99735.88;5528894;26;20073;-66
2024/04/08 10:34:01;;;;;;;0.55;0.55;;;;;;;24.61;41.00;99728.88;5527035;26;20016;-68
2024/04/08 10:36:32;;;;;;;0.40;0.40;;;;;;;24.73;42.05;99736.00;5528460;26;19997;-67
2024/04/08 10:39:01;;;;;;;0.52;0.52;;;;;;;24.72;41.06;99723.84;5528573;25;20002;-68
2024/04/08 10:41:31;;;;;;;0.40;0.40;;;;;;;24.95;41.45;99728.63;5526961;26;20001;-68
2024/04/08 10:44:01;;;;;;;0.40;0.40;;;;;;;25.02;40.46;99716.88;5528476;25;20067;-67
2024/04/08 10:46:34;;;;;;;0.47;0.47;;;;;;;25.09;41.04;99715.59;5526576;26;20005;-69
2024/04/08 10:49:05;;;;;;;0.52;0.50;;;;;;;25.22;41.06;99713.06;5528500;25;20008;-68
2024/04/08 10:51:36;;;;;;;0.40;0.40;;;;;;;25.20;40.50;99710.56;5527352;25;20068;-67
2024/04/08 10:54:04;;;;;;;0.50;0.50;;;;;;;25.21;39.61;99701.78;5527957;26;20365;-67
2024/04/08 10:56:35;;;;;;;0.70;0.70;;;;;;;25.14;40.29;99705.72;5528155;25;19997;-69
2024/04/08 10:59:04;;;;;;;0.50;0.50;;;;;;;25.21;40.04;99700.94;5528646;25;20456;-68
2024/04/08 11:01:40;;;;;;;0.63;0.63;;;;;;;25.27;39.68;99698.78;5528555;25;20013;-69
2024/04/08 11:04:08;;;;;;;0.40;0.40;;;;;;;25.24;40.12;99695.53;5528294;26;20072;-68
2024/04/08 11:06:39;;;;;;;0.40;0.40;;;;;;;25.12;40.13;99685.84;5528170;26;20009;-69
2024/04/08 11:09:07;;;;;;;0.50;0.50;;;;;;;25.06;40.59;99684.41;5527931;26;20033;-68
2024/04/08 11:11:38;;;;;;;0.40;0.40;;;;;;;25.05;39.97;99674.88;5528536;25;20009;-67
2024/04/08 11:14:06;;;;;;;0.70;0.70;;;;;;;25.18;40.48;99678.44;5528211;26;20020;-68
2024/04/08 11:16:36;;;;;;;0.50;0.50;;;;;;;25.21;41.08;99673.06;5528390;25;20033;-68
2024/04/08 11:19:07;;;;;;;0.65;0.63;;;;;;;25.31;40.11;99668.91;5528495;26;20428;-67
2024/04/08 11:21:37;;;;;;;0.40;0.40;;;;;;;25.36;40.52;99667.81;5528165;26;20013;-67
2024/04/08 11:24:10;;;;;;;0.30;0.30;;;;;;;25.39;40.03;99667.63;5528250;25;19997;-68
2024/04/08 11:26:41;;;;;;;0.50;0.50;;;;;;;25.20;39.77;99655.69;5528334;25;20447;-67
2024/04/08 11:29:22;;;;;;;0.40;0.40;;;;;;;25.22;41.09;99632.06;5527527;25;20385;-68
2024/04/08 11:31:53;;;;;;;0.50;0.50;;;;;;;25.44;41.83;99650.75;5527836;25;20012;-68
2024/04/08 11:34:23;;;;;;;0.50;0.50;;;;;;;25.54;41.75;99651.00;5526448;26;20009;-68
2024/04/08 11:36:54;;;;;;;2.90;1.50;;;;;;;25.42;41.89;99646.50;5526186;26;20007;-67
2024/04/08 11:39:21;;;;;;;0.50;0.45;;;;;;;25.45;42.32;99636.75;5527854;26;20069;-68
2024/04/08 11:42:00;;;;;;;0.50;0.50;;;;;;;25.30;41.71;99638.50;5527619;26;20001;-67